Terminal Aerodrome Forecast
Issued by NWS Tallahassee, FL

Home | Current Version | Previous Version | Text Only | Print | Product List | Glossary On
Versions: 1 2 3 4 5 6 7 8 9 10 11 12 13 14 15 16 17
561
FTUS42 KTAE 191732
TAFTLH
TAF
KTLH 191732Z 1918/2018 28013G20KT P6SM SCT040
     FM200100 VRB05KT P6SM SKC
     FM201500 07012G18KT P6SM SKC=

USA.gov is the U.S. government's official web portal to all federal, state and local government web resources and services.